sensor_id;sensor_type;location;lat;lon;timestamp;P1;durP1;ratioP1;P2;durP2;ratioP2
23163;SDS011;31429;42.674;23.350;2022-10-16T00:00:26;30.47;;;21.90;;
23163;SDS011;31429;42.674;23.350;2022-10-16T00:01:28;29.10;;;24.50;;
23163;SDS011;31429;42.674;23.350;2022-10-16T00:02:30;32.17;;;24.38;;
23163;SDS011;31429;42.674;23.350;2022-10-16T00:03:31;31.87;;;24.97;;
23163;SDS011;31429;42.674;23.350;2022-10-16T00:04:31;33.73;;;26.23;;
23163;SDS011;31429;42.674;23.350;2022-10-16T00:05:32;30.27;;;23.60;;
23163;SDS011;31429;42.674;23.350;2022-10-16T00:06:33;27.77;;;22.40;;
23163;SDS011;31429;42.674;23.350;2022-10-16T00:07:34;26.63;;;22.40;;
23163;SDS011;31429;42.674;23.350;2022-10-16T00:08:35;26.67;;;22.83;;
23163;SDS011;31429;42.674;23.350;2022-10-16T00:09:37;26.55;;;22.83;;
23163;SDS011;31429;42.674;23.350;2022-10-16T00:10:38;29.77;;;25.17;;
23163;SDS011;31429;42.674;23.350;2022-10-16T00:11:40;32.42;;;24.85;;
23163;SDS011;31429;42.674;23.350;2022-10-16T00:12:41;33.10;;;24.85;;
23163;SDS011;31429;42.674;23.350;2022-10-16T00:13:42;29.50;;;24.63;;
23163;SDS011;31429;42.674;23.350;2022-10-16T00:14:44;29.88;;;26.08;;
23163;SDS011;31429;42.674;23.350;2022-10-16T00:15:45;33.33;;;25.77;;
23163;SDS011;31429;42.674;23.350;2022-10-16T00:16:47;33.60;;;26.20;;
23163;SDS011;31429;42.674;23.350;2022-10-16T00:17:48;46.25;;;36.08;;
23163;SDS011;31429;42.674;23.350;2022-10-16T00:18:49;36.80;;;27.80;;
23163;SDS011;31429;42.674;23.350;2022-10-16T00:19:49;34.07;;;24.63;;
23163;SDS011;31429;42.674;23.350;2022-10-16T00:20:50;31.50;;;26.53;;
23163;SDS011;31429;42.674;23.350;2022-10-16T00:21:51;30.77;;;24.73;;
23163;SDS011;31429;42.674;23.350;2022-10-16T00:22:52;33.07;;;25.23;;
23163;SDS011;31429;42.674;23.350;2022-10-16T00:23:53;34.07;;;27.00;;
23163;SDS011;31429;42.674;23.350;2022-10-16T00:24:55;29.77;;;24.98;;
23163;SDS011;31429;42.674;23.350;2022-10-16T00:25:56;33.17;;;26.33;;
23163;SDS011;31429;42.674;23.350;2022-10-16T00:26:57;41.35;;;27.15;;
23163;SDS011;31429;42.674;23.350;2022-10-16T00:27:58;33.13;;;26.90;;
23163;SDS011;31429;42.674;23.350;2022-10-16T00:28:59;32.70;;;26.07;;
23163;SDS011;31429;42.674;23.350;2022-10-16T00:29:59;36.57;;;26.77;;
23163;SDS011;31429;42.674;23.350;2022-10-16T00:31:02;30.00;;;25.37;;
23163;SDS011;31429;42.674;23.350;2022-10-16T00:32:05;35.30;;;27.17;;
23163;SDS011;31429;42.674;23.350;2022-10-16T00:33:05;32.83;;;26.77;;
23163;SDS011;31429;42.674;23.350;2022-10-16T00:34:06;32.13;;;27.53;;
23163;SDS011;31429;42.674;23.350;2022-10-16T00:35:07;29.30;;;24.97;;
23163;SDS011;31429;42.674;23.350;2022-10-16T00:36:09;30.63;;;25.00;;
23163;SDS011;31429;42.674;23.350;2022-10-16T00:37:11;30.20;;;22.85;;
23163;SDS011;31429;42.674;23.350;2022-10-16T00:38:12;31.17;;;24.03;;
23163;SDS011;31429;42.674;23.350;2022-10-16T00:39:12;29.90;;;23.30;;
23163;SDS011;31429;42.674;23.350;2022-10-16T00:40:13;40.53;;;31.63;;
23163;SDS011;31429;42.674;23.350;2022-10-16T00:41:14;35.87;;;28.70;;
23163;SDS011;31429;42.674;23.350;2022-10-16T00:42:17;39.60;;;30.58;;
23163;SDS011;31429;42.674;23.350;2022-10-16T00:44:43;27.45;;;23.33;;
23163;SDS011;31429;42.674;23.350;2022-10-16T00:45:46;28.67;;;22.02;;
23163;SDS011;31429;42.674;23.350;2022-10-16T00:46:47;27.47;;;22.53;;
23163;SDS011;31429;42.674;23.350;2022-10-16T00:47:50;26.73;;;21.30;;
23163;SDS011;31429;42.674;23.350;2022-10-16T00:48:55;25.27;;;21.60;;
23163;SDS011;31429;42.674;23.350;2022-10-16T00:50:00;25.25;;;20.20;;
23163;SDS011;31429;42.674;23.350;2022-10-16T00:51:06;25.25;;;20.30;;
23163;SDS011;31429;42.674;23.350;2022-10-16T00:52:08;23.77;;;20.02;;
23163;SDS011;31429;42.674;23.350;2022-10-16T00:53:10;24.50;;;20.02;;
23163;SDS011;31429;42.674;23.350;2022-10-16T00:54:13;26.80;;;20.38;;
23163;SDS011;31429;42.674;23.350;2022-10-16T00:55:17;26.00;;;21.90;;
23163;SDS011;31429;42.674;23.350;2022-10-16T00:56:18;29.00;;;21.88;;
23163;SDS011;31429;42.674;23.350;2022-10-16T00:57:19;29.43;;;24.00;;
23163;SDS011;31429;42.674;23.350;2022-10-16T00:58:20;45.23;;;33.07;;
23163;SDS011;31429;42.674;23.350;2022-10-16T00:59:22;45.90;;;33.88;;
23163;SDS011;31429;42.674;23.350;2022-10-16T01:00:26;39.30;;;31.45;;
23163;SDS011;31429;42.674;23.350;2022-10-16T01:01:27;42.72;;;34.38;;
23163;SDS011;31429;42.674;23.350;2022-10-16T01:02:28;38.90;;;31.88;;
23163;SDS011;31429;42.674;23.350;2022-10-16T01:03:31;41.27;;;31.63;;
23163;SDS011;31429;42.674;23.350;2022-10-16T01:04:34;33.30;;;25.95;;
23163;SDS011;31429;42.674;23.350;2022-10-16T01:05:37;29.55;;;23.52;;
23163;SDS011;31429;42.674;23.350;2022-10-16T01:06:46;27.10;;;22.45;;
23163;SDS011;31429;42.674;23.350;2022-10-16T01:07:56;25.63;;;20.85;;
23163;SDS011;31429;42.674;23.350;2022-10-16T01:09:08;27.58;;;21.58;;
23163;SDS011;31429;42.674;23.350;2022-10-16T01:10:19;26.48;;;21.50;;
23163;SDS011;31429;42.674;23.350;2022-10-16T01:11:28;31.92;;;25.60;;
23163;SDS011;31429;42.674;23.350;2022-10-16T01:12:35;36.60;;;29.70;;
23163;SDS011;31429;42.674;23.350;2022-10-16T01:13:42;43.85;;;31.30;;
23163;SDS011;31429;42.674;23.350;2022-10-16T01:14:51;39.28;;;30.42;;
23163;SDS011;31429;42.674;23.350;2022-10-16T01:15:55;37.03;;;30.08;;
23163;SDS011;31429;42.674;23.350;2022-10-16T01:17:01;37.70;;;29.20;;
23163;SDS011;31429;42.674;23.350;2022-10-16T01:18:07;37.40;;;27.52;;
23163;SDS011;31429;42.674;23.350;2022-10-16T01:19:13;44.72;;;33.17;;
23163;SDS011;31429;42.674;23.350;2022-10-16T01:20:21;35.67;;;29.48;;
23163;SDS011;31429;42.674;23.350;2022-10-16T01:21:28;33.22;;;27.67;;
23163;SDS011;31429;42.674;23.350;2022-10-16T01:22:36;30.08;;;25.55;;
23163;SDS011;31429;42.674;23.350;2022-10-16T01:23:45;32.53;;;25.63;;
23163;SDS011;31429;42.674;23.350;2022-10-16T01:24:57;29.67;;;22.35;;
23163;SDS011;31429;42.674;23.350;2022-10-16T01:26:10;25.00;;;21.40;;
23163;SDS011;31429;42.674;23.350;2022-10-16T01:27:19;27.98;;;21.73;;
23163;SDS011;31429;42.674;23.350;2022-10-16T01:28:23;26.08;;;21.25;;
23163;SDS011;31429;42.674;23.350;2022-10-16T01:29:28;29.70;;;23.50;;
23163;SDS011;31429;42.674;23.350;2022-10-16T01:30:34;28.98;;;22.77;;
23163;SDS011;31429;42.674;23.350;2022-10-16T01:31:37;26.27;;;21.85;;
23163;SDS011;31429;42.674;23.350;2022-10-16T01:32:42;30.33;;;24.00;;
23163;SDS011;31429;42.674;23.350;2022-10-16T01:33:51;29.02;;;23.23;;
23163;SDS011;31429;42.674;23.350;2022-10-16T01:34:57;37.53;;;29.17;;
23163;SDS011;31429;42.674;23.350;2022-10-16T01:36:03;37.25;;;28.50;;
23163;SDS011;31429;42.674;23.350;2022-10-16T01:37:11;35.40;;;28.40;;
23163;SDS011;31429;42.674;23.350;2022-10-16T01:38:16;30.48;;;25.92;;
23163;SDS011;31429;42.674;23.350;2022-10-16T01:39:21;31.35;;;24.85;;
23163;SDS011;31429;42.674;23.350;2022-10-16T01:40:25;31.15;;;24.40;;
23163;SDS011;31429;42.674;23.350;2022-10-16T01:41:28;34.13;;;27.15;;
23163;SDS011;31429;42.674;23.350;2022-10-16T01:42:35;26.45;;;22.30;;
23163;SDS011;31429;42.674;23.350;2022-10-16T01:43:40;27.85;;;22.73;;
23163;SDS011;31429;42.674;23.350;2022-10-16T01:44:45;31.35;;;24.75;;
23163;SDS011;31429;42.674;23.350;2022-10-16T01:45:47;30.42;;;25.45;;
23163;SDS011;31429;42.674;23.350;2022-10-16T01:46:49;30.90;;;23.48;;
23163;SDS011;31429;42.674;23.350;2022-10-16T01:47:52;29.23;;;23.40;;
23163;SDS011;31429;42.674;23.350;2022-10-16T01:48:54;32.08;;;24.67;;
23163;SDS011;31429;42.674;23.350;2022-10-16T01:49:55;29.60;;;23.63;;
23163;SDS011;31429;42.674;23.350;2022-10-16T01:51:01;33.70;;;24.30;;
23163;SDS011;31429;42.674;23.350;2022-10-16T01:52:06;32.42;;;25.38;;
23163;SDS011;31429;42.674;23.350;2022-10-16T01:53:10;32.80;;;25.15;;
23163;SDS011;31429;42.674;23.350;2022-10-16T01:54:14;31.73;;;25.65;;
23163;SDS011;31429;42.674;23.350;2022-10-16T01:55:19;30.15;;;23.70;;
23163;SDS011;31429;42.674;23.350;2022-10-16T01:56:22;28.60;;;23.42;;
23163;SDS011;31429;42.674;23.350;2022-10-16T01:57:25;29.10;;;23.00;;
23163;SDS011;31429;42.674;23.350;2022-10-16T01:58:29;26.02;;;22.13;;
23163;SDS011;31429;42.674;23.350;2022-10-16T01:59:35;26.15;;;21.17;;
23163;SDS011;31429;42.674;23.350;2022-10-16T02:00:40;25.13;;;22.38;;
23163;SDS011;31429;42.674;23.350;2022-10-16T02:01:44;27.85;;;22.60;;
23163;SDS011;31429;42.674;23.350;2022-10-16T02:02:49;29.25;;;22.95;;
23163;SDS011;31429;42.674;23.350;2022-10-16T02:03:54;30.98;;;22.42;;
23163;SDS011;31429;42.674;23.350;2022-10-16T02:05:01;26.67;;;21.15;;
23163;SDS011;31429;42.674;23.350;2022-10-16T02:06:05;27.30;;;21.92;;
23163;SDS011;31429;42.674;23.350;2022-10-16T02:07:06;27.38;;;21.48;;
23163;SDS011;31429;42.674;23.350;2022-10-16T02:08:07;24.73;;;21.10;;
23163;SDS011;31429;42.674;23.350;2022-10-16T02:09:08;26.13;;;20.50;;
23163;SDS011;31429;42.674;23.350;2022-10-16T02:10:09;25.37;;;21.37;;
23163;SDS011;31429;42.674;23.350;2022-10-16T02:11:10;27.05;;;22.20;;
23163;SDS011;31429;42.674;23.350;2022-10-16T02:12:13;28.08;;;21.40;;
23163;SDS011;31429;42.674;23.350;2022-10-16T02:13:18;26.88;;;22.20;;
23163;SDS011;31429;42.674;23.350;2022-10-16T02:14:25;27.17;;;21.60;;
23163;SDS011;31429;42.674;23.350;2022-10-16T02:15:26;23.90;;;21.23;;
23163;SDS011;31429;42.674;23.350;2022-10-16T02:16:32;27.50;;;21.97;;
23163;SDS011;31429;42.674;23.350;2022-10-16T02:17:34;23.80;;;21.30;;
23163;SDS011;31429;42.674;23.350;2022-10-16T02:18:35;28.55;;;22.27;;
23163;SDS011;31429;42.674;23.350;2022-10-16T02:19:36;26.73;;;21.77;;
23163;SDS011;31429;42.674;23.350;2022-10-16T02:20:38;28.17;;;21.70;;
23163;SDS011;31429;42.674;23.350;2022-10-16T02:21:49;27.70;;;21.52;;
23163;SDS011;31429;42.674;23.350;2022-10-16T02:22:54;24.90;;;20.25;;
23163;SDS011;31429;42.674;23.350;2022-10-16T02:23:58;27.38;;;21.30;;
23163;SDS011;31429;42.674;23.350;2022-10-16T02:25:04;23.30;;;20.80;;
23163;SDS011;31429;42.674;23.350;2022-10-16T02:26:08;24.23;;;20.55;;
23163;SDS011;31429;42.674;23.350;2022-10-16T02:27:14;25.13;;;20.38;;
23163;SDS011;31429;42.674;23.350;2022-10-16T02:28:22;27.17;;;20.10;;
23163;SDS011;31429;42.674;23.350;2022-10-16T02:29:29;34.97;;;27.67;;
23163;SDS011;31429;42.674;23.350;2022-10-16T02:30:32;65.10;;;50.53;;
23163;SDS011;31429;42.674;23.350;2022-10-16T02:31:38;64.28;;;48.88;;
23163;SDS011;31429;42.674;23.350;2022-10-16T02:32:44;93.43;;;70.65;;
23163;SDS011;31429;42.674;23.350;2022-10-16T02:33:47;141.77;;;100.43;;
23163;SDS011;31429;42.674;23.350;2022-10-16T02:34:50;65.65;;;48.00;;
23163;SDS011;31429;42.674;23.350;2022-10-16T02:35:52;99.50;;;69.20;;
23163;SDS011;31429;42.674;23.350;2022-10-16T02:36:54;150.05;;;106.90;;
23163;SDS011;31429;42.674;23.350;2022-10-16T02:37:56;139.35;;;96.88;;
23163;SDS011;31429;42.674;23.350;2022-10-16T02:38:58;114.72;;;79.57;;
23163;SDS011;31429;42.674;23.350;2022-10-16T02:40:04;47.95;;;35.90;;
23163;SDS011;31429;42.674;23.350;2022-10-16T02:41:06;126.20;;;87.25;;
23163;SDS011;31429;42.674;23.350;2022-10-16T02:42:09;128.57;;;90.67;;
23163;SDS011;31429;42.674;23.350;2022-10-16T02:43:10;101.85;;;72.65;;
23163;SDS011;31429;42.674;23.350;2022-10-16T02:44:11;179.50;;;122.78;;
23163;SDS011;31429;42.674;23.350;2022-10-16T02:45:13;180.67;;;125.93;;
23163;SDS011;31429;42.674;23.350;2022-10-16T02:46:14;111.18;;;79.47;;
23163;SDS011;31429;42.674;23.350;2022-10-16T02:47:15;75.30;;;53.50;;
23163;SDS011;31429;42.674;23.350;2022-10-16T02:48:15;154.20;;;107.93;;
23163;SDS011;31429;42.674;23.350;2022-10-16T02:49:16;184.60;;;131.27;;
23163;SDS011;31429;42.674;23.350;2022-10-16T02:50:18;212.82;;;147.00;;
23163;SDS011;31429;42.674;23.350;2022-10-16T02:51:18;179.60;;;127.10;;
23163;SDS011;31429;42.674;23.350;2022-10-16T02:52:19;117.23;;;81.07;;
23163;SDS011;31429;42.674;23.350;2022-10-16T02:53:20;180.93;;;126.17;;
23163;SDS011;31429;42.674;23.350;2022-10-16T02:54:20;127.33;;;92.57;;
23163;SDS011;31429;42.674;23.350;2022-10-16T02:55:21;163.03;;;115.73;;
23163;SDS011;31429;42.674;23.350;2022-10-16T02:56:22;151.13;;;104.13;;
23163;SDS011;31429;42.674;23.350;2022-10-16T02:57:22;171.60;;;116.93;;
23163;SDS011;31429;42.674;23.350;2022-10-16T02:58:23;95.13;;;67.70;;
23163;SDS011;31429;42.674;23.350;2022-10-16T02:59:24;211.43;;;142.63;;
23163;SDS011;31429;42.674;23.350;2022-10-16T03:00:26;183.87;;;127.53;;
23163;SDS011;31429;42.674;23.350;2022-10-16T03:01:26;235.25;;;161.95;;
23163;SDS011;31429;42.674;23.350;2022-10-16T03:02:27;99.77;;;68.73;;
23163;SDS011;31429;42.674;23.350;2022-10-16T03:03:28;107.50;;;73.97;;
23163;SDS011;31429;42.674;23.350;2022-10-16T03:04:28;109.53;;;76.33;;
23163;SDS011;31429;42.674;23.350;2022-10-16T03:05:29;189.77;;;130.10;;
23163;SDS011;31429;42.674;23.350;2022-10-16T03:06:30;127.80;;;86.70;;
23163;SDS011;31429;42.674;23.350;2022-10-16T03:07:31;92.07;;;65.33;;
23163;SDS011;31429;42.674;23.350;2022-10-16T03:08:31;45.43;;;34.07;;
23163;SDS011;31429;42.674;23.350;2022-10-16T03:09:32;42.73;;;32.00;;
23163;SDS011;31429;42.674;23.350;2022-10-16T03:10:33;35.53;;;27.70;;
23163;SDS011;31429;42.674;23.350;2022-10-16T03:11:33;30.97;;;23.73;;
23163;SDS011;31429;42.674;23.350;2022-10-16T03:12:34;29.97;;;22.37;;
23163;SDS011;31429;42.674;23.350;2022-10-16T03:13:35;23.43;;;18.40;;
23163;SDS011;31429;42.674;23.350;2022-10-16T03:14:35;23.60;;;18.20;;
23163;SDS011;31429;42.674;23.350;2022-10-16T03:15:38;21.00;;;17.93;;
23163;SDS011;31429;42.674;23.350;2022-10-16T03:16:38;22.92;;;18.88;;
23163;SDS011;31429;42.674;23.350;2022-10-16T03:17:39;29.83;;;23.13;;
23163;SDS011;31429;42.674;23.350;2022-10-16T03:18:39;24.17;;;20.63;;
23163;SDS011;31429;42.674;23.350;2022-10-16T03:19:40;36.33;;;28.07;;
23163;SDS011;31429;42.674;23.350;2022-10-16T03:20:42;31.43;;;25.30;;
23163;SDS011;31429;42.674;23.350;2022-10-16T03:21:43;31.75;;;24.40;;
23163;SDS011;31429;42.674;23.350;2022-10-16T03:22:43;33.43;;;25.90;;
23163;SDS011;31429;42.674;23.350;2022-10-16T03:23:44;35.97;;;25.97;;
23163;SDS011;31429;42.674;23.350;2022-10-16T03:24:45;27.67;;;22.80;;
23163;SDS011;31429;42.674;23.350;2022-10-16T03:25:45;28.27;;;22.33;;
23163;SDS011;31429;42.674;23.350;2022-10-16T03:26:46;27.33;;;20.63;;
23163;SDS011;31429;42.674;23.350;2022-10-16T03:27:47;30.80;;;23.87;;
23163;SDS011;31429;42.674;23.350;2022-10-16T03:28:47;23.73;;;19.10;;
23163;SDS011;31429;42.674;23.350;2022-10-16T03:29:48;35.37;;;22.93;;
23163;SDS011;31429;42.674;23.350;2022-10-16T03:30:50;29.40;;;24.57;;
23163;SDS011;31429;42.674;23.350;2022-10-16T03:31:51;33.92;;;26.20;;
23163;SDS011;31429;42.674;23.350;2022-10-16T03:32:51;26.47;;;20.43;;
23163;SDS011;31429;42.674;23.350;2022-10-16T03:33:54;26.23;;;20.27;;
23163;SDS011;31429;42.674;23.350;2022-10-16T03:34:54;21.30;;;17.33;;
23163;SDS011;31429;42.674;23.350;2022-10-16T03:35:56;18.38;;;15.20;;
23163;SDS011;31429;42.674;23.350;2022-10-16T03:36:57;20.30;;;16.37;;
23163;SDS011;31429;42.674;23.350;2022-10-16T03:37:57;18.47;;;15.77;;
23163;SDS011;31429;42.674;23.350;2022-10-16T03:38:58;17.43;;;15.17;;
23163;SDS011;31429;42.674;23.350;2022-10-16T03:39:59;18.30;;;15.77;;
23163;SDS011;31429;42.674;23.350;2022-10-16T03:40:59;20.73;;;17.27;;
23163;SDS011;31429;42.674;23.350;2022-10-16T03:42:00;20.97;;;17.67;;
23163;SDS011;31429;42.674;23.350;2022-10-16T03:43:01;20.40;;;15.07;;
23163;SDS011;31429;42.674;23.350;2022-10-16T03:44:01;20.73;;;17.63;;
23163;SDS011;31429;42.674;23.350;2022-10-16T03:45:02;27.50;;;19.43;;
23163;SDS011;31429;42.674;23.350;2022-10-16T03:46:05;20.10;;;17.33;;
23163;SDS011;31429;42.674;23.350;2022-10-16T03:47:05;21.98;;;18.60;;
23163;SDS011;31429;42.674;23.350;2022-10-16T03:48:06;19.87;;;16.57;;
23163;SDS011;31429;42.674;23.350;2022-10-16T03:49:07;18.23;;;15.70;;
23163;SDS011;31429;42.674;23.350;2022-10-16T03:50:08;18.13;;;16.00;;
23163;SDS011;31429;42.674;23.350;2022-10-16T03:51:09;18.95;;;15.70;;
23163;SDS011;31429;42.674;23.350;2022-10-16T03:52:09;18.60;;;16.27;;
23163;SDS011;31429;42.674;23.350;2022-10-16T03:53:10;19.70;;;16.17;;
23163;SDS011;31429;42.674;23.350;2022-10-16T03:54:11;19.47;;;15.83;;
23163;SDS011;31429;42.674;23.350;2022-10-16T03:55:11;23.13;;;16.53;;
23163;SDS011;31429;42.674;23.350;2022-10-16T03:56:12;24.50;;;18.47;;
23163;SDS011;31429;42.674;23.350;2022-10-16T03:57:13;25.08;;;18.63;;
23163;SDS011;31429;42.674;23.350;2022-10-16T03:58:14;23.53;;;17.23;;
23163;SDS011;31429;42.674;23.350;2022-10-16T03:59:15;19.57;;;16.63;;
23163;SDS011;31429;42.674;23.350;2022-10-16T04:00:15;22.80;;;19.53;;
23163;SDS011;31429;42.674;23.350;2022-10-16T04:01:18;21.60;;;18.17;;
23163;SDS011;31429;42.674;23.350;2022-10-16T04:02:19;25.55;;;20.02;;
23163;SDS011;31429;42.674;23.350;2022-10-16T04:03:19;22.90;;;17.67;;
23163;SDS011;31429;42.674;23.350;2022-10-16T04:04:21;22.13;;;19.10;;
23163;SDS011;31429;42.674;23.350;2022-10-16T04:05:22;22.60;;;19.63;;
23163;SDS011;31429;42.674;23.350;2022-10-16T04:06:22;25.97;;;19.50;;
23163;SDS011;31429;42.674;23.350;2022-10-16T04:07:23;28.63;;;20.23;;
23163;SDS011;31429;42.674;23.350;2022-10-16T04:08:24;24.27;;;18.50;;
23163;SDS011;31429;42.674;23.350;2022-10-16T04:09:24;20.77;;;18.20;;
23163;SDS011;31429;42.674;23.350;2022-10-16T04:10:25;24.57;;;19.77;;
23163;SDS011;31429;42.674;23.350;2022-10-16T04:11:25;22.83;;;18.90;;
23163;SDS011;31429;42.674;23.350;2022-10-16T04:12:26;21.43;;;16.20;;
23163;SDS011;31429;42.674;23.350;2022-10-16T04:13:27;19.07;;;16.73;;
23163;SDS011;31429;42.674;23.350;2022-10-16T04:14:28;21.13;;;17.07;;
23163;SDS011;31429;42.674;23.350;2022-10-16T04:15:28;19.27;;;17.07;;
23163;SDS011;31429;42.674;23.350;2022-10-16T04:16:31;27.87;;;17.07;;
23163;SDS011;31429;42.674;23.350;2022-10-16T04:17:31;24.15;;;20.08;;
23163;SDS011;31429;42.674;23.350;2022-10-16T04:18:32;23.97;;;18.73;;
23163;SDS011;31429;42.674;23.350;2022-10-16T04:19:33;22.63;;;18.67;;
23163;SDS011;31429;42.674;23.350;2022-10-16T04:20:33;20.90;;;16.77;;
23163;SDS011;31429;42.674;23.350;2022-10-16T04:21:34;22.20;;;16.13;;
23163;SDS011;31429;42.674;23.350;2022-10-16T04:22:35;19.37;;;16.30;;
23163;SDS011;31429;42.674;23.350;2022-10-16T04:23:35;20.87;;;16.73;;
23163;SDS011;31429;42.674;23.350;2022-10-16T04:24:36;21.30;;;18.27;;
23163;SDS011;31429;42.674;23.350;2022-10-16T04:25:37;20.63;;;18.43;;
23163;SDS011;31429;42.674;23.350;2022-10-16T04:26:37;22.50;;;17.73;;
23163;SDS011;31429;42.674;23.350;2022-10-16T04:27:38;22.73;;;17.57;;
23163;SDS011;31429;42.674;23.350;2022-10-16T04:28:39;20.55;;;17.45;;
23163;SDS011;31429;42.674;23.350;2022-10-16T04:29:40;21.87;;;16.37;;
23163;SDS011;31429;42.674;23.350;2022-10-16T04:30:40;19.73;;;16.03;;
23163;SDS011;31429;42.674;23.350;2022-10-16T04:31:42;20.37;;;16.70;;
23163;SDS011;31429;42.674;23.350;2022-10-16T04:32:43;20.30;;;16.30;;
23163;SDS011;31429;42.674;23.350;2022-10-16T04:33:48;21.05;;;17.02;;
23163;SDS011;31429;42.674;23.350;2022-10-16T04:34:48;18.23;;;16.17;;
23163;SDS011;31429;42.674;23.350;2022-10-16T04:35:55;19.57;;;16.77;;
23163;SDS011;31429;42.674;23.350;2022-10-16T04:36:56;19.73;;;17.23;;
23163;SDS011;31429;42.674;23.350;2022-10-16T04:37:57;21.17;;;16.97;;
23163;SDS011;31429;42.674;23.350;2022-10-16T04:38:57;20.40;;;16.53;;
23163;SDS011;31429;42.674;23.350;2022-10-16T04:39:58;22.47;;;17.43;;
23163;SDS011;31429;42.674;23.350;2022-10-16T04:40:59;25.70;;;17.43;;
23163;SDS011;31429;42.674;23.350;2022-10-16T04:42:00;21.42;;;17.98;;
23163;SDS011;31429;42.674;23.350;2022-10-16T04:43:00;23.27;;;18.40;;
23163;SDS011;31429;42.674;23.350;2022-10-16T04:44:01;20.23;;;17.40;;
23163;SDS011;31429;42.674;23.350;2022-10-16T04:45:02;23.33;;;18.33;;
23163;SDS011;31429;42.674;23.350;2022-10-16T04:46:03;23.27;;;18.00;;
23163;SDS011;31429;42.674;23.350;2022-10-16T04:47:06;20.42;;;17.25;;
23163;SDS011;31429;42.674;23.350;2022-10-16T04:48:07;20.13;;;17.65;;
23163;SDS011;31429;42.674;23.350;2022-10-16T04:49:07;21.37;;;17.40;;
23163;SDS011;31429;42.674;23.350;2022-10-16T04:50:08;26.03;;;18.03;;
23163;SDS011;31429;42.674;23.350;2022-10-16T04:51:09;21.50;;;18.60;;
23163;SDS011;31429;42.674;23.350;2022-10-16T04:52:10;22.08;;;18.42;;
23163;SDS011;31429;42.674;23.350;2022-10-16T04:53:11;19.60;;;17.23;;
23163;SDS011;31429;42.674;23.350;2022-10-16T04:54:12;21.80;;;17.65;;
23163;SDS011;31429;42.674;23.350;2022-10-16T04:55:13;24.10;;;19.13;;
23163;SDS011;31429;42.674;23.350;2022-10-16T04:56:14;29.03;;;19.20;;
23163;SDS011;31429;42.674;23.350;2022-10-16T04:57:15;20.85;;;17.42;;
23163;SDS011;31429;42.674;23.350;2022-10-16T04:58:16;19.87;;;16.73;;
23163;SDS011;31429;42.674;23.350;2022-10-16T04:59:17;21.08;;;16.55;;
23163;SDS011;31429;42.674;23.350;2022-10-16T05:00:18;18.75;;;16.73;;
23163;SDS011;31429;42.674;23.350;2022-10-16T05:01:19;22.47;;;17.37;;
23163;SDS011;31429;42.674;23.350;2022-10-16T05:02:21;21.50;;;18.07;;
23163;SDS011;31429;42.674;23.350;2022-10-16T05:03:22;23.83;;;18.98;;
23163;SDS011;31429;42.674;23.350;2022-10-16T05:04:23;21.17;;;18.93;;
23163;SDS011;31429;42.674;23.350;2022-10-16T05:05:23;22.60;;;19.10;;
23163;SDS011;31429;42.674;23.350;2022-10-16T05:06:24;22.63;;;18.63;;
23163;SDS011;31429;42.674;23.350;2022-10-16T05:07:25;22.00;;;18.50;;
23163;SDS011;31429;42.674;23.350;2022-10-16T05:08:26;20.23;;;18.03;;
23163;SDS011;31429;42.674;23.350;2022-10-16T05:09:26;19.87;;;17.33;;
23163;SDS011;31429;42.674;23.350;2022-10-16T05:10:27;20.27;;;17.47;;
23163;SDS011;31429;42.674;23.350;2022-10-16T05:11:28;22.97;;;16.33;;
23163;SDS011;31429;42.674;23.350;2022-10-16T05:12:29;19.53;;;17.10;;
23163;SDS011;31429;42.674;23.350;2022-10-16T05:13:29;19.60;;;16.97;;
23163;SDS011;31429;42.674;23.350;2022-10-16T05:14:30;18.93;;;16.83;;
23163;SDS011;31429;42.674;23.350;2022-10-16T05:15:31;18.90;;;16.90;;
23163;SDS011;31429;42.674;23.350;2022-10-16T05:16:31;20.83;;;16.57;;
23163;SDS011;31429;42.674;23.350;2022-10-16T05:17:34;20.83;;;17.57;;
23163;SDS011;31429;42.674;23.350;2022-10-16T05:18:34;17.83;;;15.93;;
23163;SDS011;31429;42.674;23.350;2022-10-16T05:19:35;21.37;;;16.63;;
23163;SDS011;31429;42.674;23.350;2022-10-16T05:20:35;16.93;;;14.60;;
23163;SDS011;31429;42.674;23.350;2022-10-16T05:21:36;21.03;;;15.27;;
23163;SDS011;31429;42.674;23.350;2022-10-16T05:22:37;19.47;;;15.90;;
23163;SDS011;31429;42.674;23.350;2022-10-16T05:23:37;21.97;;;16.90;;
23163;SDS011;31429;42.674;23.350;2022-10-16T05:24:38;20.83;;;18.60;;
23163;SDS011;31429;42.674;23.350;2022-10-16T05:25:39;18.87;;;16.87;;
23163;SDS011;31429;42.674;23.350;2022-10-16T05:26:39;22.00;;;17.50;;
23163;SDS011;31429;42.674;23.350;2022-10-16T05:27:40;20.70;;;18.43;;
23163;SDS011;31429;42.674;23.350;2022-10-16T05:28:41;19.27;;;16.00;;
23163;SDS011;31429;42.674;23.350;2022-10-16T05:29:41;22.47;;;16.57;;
23163;SDS011;31429;42.674;23.350;2022-10-16T05:30:42;18.33;;;16.27;;
23163;SDS011;31429;42.674;23.350;2022-10-16T05:31:43;17.93;;;15.80;;
23163;SDS011;31429;42.674;23.350;2022-10-16T05:32:47;18.83;;;16.80;;
23163;SDS011;31429;42.674;23.350;2022-10-16T05:33:48;18.80;;;16.25;;
23163;SDS011;31429;42.674;23.350;2022-10-16T05:34:50;18.60;;;16.60;;
23163;SDS011;31429;42.674;23.350;2022-10-16T05:35:51;18.88;;;15.23;;
23163;SDS011;31429;42.674;23.350;2022-10-16T05:36:52;17.07;;;14.43;;
23163;SDS011;31429;42.674;23.350;2022-10-16T05:37:52;17.83;;;15.93;;
23163;SDS011;31429;42.674;23.350;2022-10-16T05:38:53;19.43;;;16.43;;
23163;SDS011;31429;42.674;23.350;2022-10-16T05:39:54;19.67;;;16.80;;
23163;SDS011;31429;42.674;23.350;2022-10-16T05:40:54;18.63;;;16.73;;
23163;SDS011;31429;42.674;23.350;2022-10-16T05:41:56;19.90;;;16.83;;
23163;SDS011;31429;42.674;23.350;2022-10-16T05:42:57;17.00;;;15.20;;
23163;SDS011;31429;42.674;23.350;2022-10-16T05:43:57;22.83;;;16.40;;
23163;SDS011;31429;42.674;23.350;2022-10-16T05:44:58;18.10;;;16.20;;
23163;SDS011;31429;42.674;23.350;2022-10-16T05:46:00;21.03;;;17.70;;
23163;SDS011;31429;42.674;23.350;2022-10-16T05:47:02;21.17;;;17.15;;
23163;SDS011;31429;42.674;23.350;2022-10-16T05:48:04;23.67;;;18.37;;
23163;SDS011;31429;42.674;23.350;2022-10-16T05:49:05;19.90;;;16.95;;
23163;SDS011;31429;42.674;23.350;2022-10-16T05:50:06;19.93;;;16.43;;
23163;SDS011;31429;42.674;23.350;2022-10-16T05:51:09;20.63;;;17.02;;
23163;SDS011;31429;42.674;23.350;2022-10-16T05:52:11;18.30;;;16.40;;
23163;SDS011;31429;42.674;23.350;2022-10-16T05:53:12;19.63;;;16.97;;
23163;SDS011;31429;42.674;23.350;2022-10-16T05:54:13;22.07;;;16.93;;
23163;SDS011;31429;42.674;23.350;2022-10-16T05:55:13;19.53;;;17.10;;
23163;SDS011;31429;42.674;23.350;2022-10-16T05:56:15;22.25;;;17.23;;
23163;SDS011;31429;42.674;23.350;2022-10-16T05:57:16;24.40;;;18.10;;
23163;SDS011;31429;42.674;23.350;2022-10-16T05:58:17;18.47;;;16.13;;
23163;SDS011;31429;42.674;23.350;2022-10-16T05:59:17;22.57;;;17.03;;